Franconia, New Hampshire
Current Conditions -  °F | °C
As of 4:52 AM on Sunday 26 Oct 2014 (Local Time) from KHIE Reporting Station
Overcast Overcast  
Wind Chill:   Ceiling: 4500
Heat Index:   Visibility: 10mi
Dew Point:   Wind: 0mph
Humidity: 90%   Direction: NA
Pressure: 29.41"   Gusts: NA
Location:  44.23°N, 71.75°W
Report Text: KHIE 260852Z AUTO 00000KT 10SM SCT034 BKN045 OVC070 07/06 A2941 RMK AO2 RAE37 SLP962 P0005 60007 T00720056 56003
Loading
Personal Weather Stations






























Interactive Weather Map
Tropical Storm Tracking
New forecast layout! Learn more

10-Day Weather Forecast

Advertisements
Track Severe Weather on mobile